sensor_id;sensor_type;location;lat;lon;timestamp;P1;durP1;ratioP1;P2;durP2;ratioP2
79644;SDS011;69117;47.148;18.954;2024-02-23T00:01:39;0.85;;;0.40;;
79644;SDS011;69117;47.148;18.954;2024-02-23T00:04:41;1.10;;;0.77;;
79644;SDS011;69117;47.148;18.954;2024-02-23T00:07:43;1.45;;;0.45;;
79644;SDS011;69117;47.148;18.954;2024-02-23T00:10:45;0.98;;;0.40;;
79644;SDS011;69117;47.148;18.954;2024-02-23T00:13:47;1.48;;;0.45;;
79644;SDS011;69117;47.148;18.954;2024-02-23T00:16:49;2.33;;;0.73;;
79644;SDS011;69117;47.148;18.954;2024-02-23T00:19:51;1.75;;;0.52;;
79644;SDS011;69117;47.148;18.954;2024-02-23T00:22:54;0.65;;;0.38;;
79644;SDS011;69117;47.148;18.954;2024-02-23T00:25:55;0.70;;;0.32;;
79644;SDS011;69117;47.148;18.954;2024-02-23T00:28:57;1.00;;;0.50;;
79644;SDS011;69117;47.148;18.954;2024-02-23T00:31:59;1.73;;;0.77;;
79644;SDS011;69117;47.148;18.954;2024-02-23T00:35:01;1.40;;;0.20;;
79644;SDS011;69117;47.148;18.954;2024-02-23T00:38:02;0.15;;;0.15;;
79644;SDS011;69117;47.148;18.954;2024-02-23T00:41:04;0.50;;;0.30;;
79644;SDS011;69117;47.148;18.954;2024-02-23T00:44:06;0.95;;;0.70;;
79644;SDS011;69117;47.148;18.954;2024-02-23T00:47:09;1.20;;;0.43;;
79644;SDS011;69117;47.148;18.954;2024-02-23T00:50:11;0.80;;;0.28;;
79644;SDS011;69117;47.148;18.954;2024-02-23T00:53:13;1.45;;;0.57;;
79644;SDS011;69117;47.148;18.954;2024-02-23T00:56:15;1.42;;;0.50;;
79644;SDS011;69117;47.148;18.954;2024-02-23T00:59:16;0.63;;;0.47;;
79644;SDS011;69117;47.148;18.954;2024-02-23T01:02:18;0.88;;;0.50;;
79644;SDS011;69117;47.148;18.954;2024-02-23T01:05:20;1.17;;;0.40;;
79644;SDS011;69117;47.148;18.954;2024-02-23T01:08:21;0.57;;;0.13;;
79644;SDS011;69117;47.148;18.954;2024-02-23T01:11:23;0.68;;;0.30;;
79644;SDS011;69117;47.148;18.954;2024-02-23T01:14:25;0.65;;;0.40;;
79644;SDS011;69117;47.148;18.954;2024-02-23T01:17:26;1.27;;;0.50;;
79644;SDS011;69117;47.148;18.954;2024-02-23T01:20:28;0.50;;;0.32;;
79644;SDS011;69117;47.148;18.954;2024-02-23T01:23:30;0.68;;;0.32;;
79644;SDS011;69117;47.148;18.954;2024-02-23T01:26:32;0.80;;;0.52;;
79644;SDS011;69117;47.148;18.954;2024-02-23T01:29:33;1.52;;;0.70;;
79644;SDS011;69117;47.148;18.954;2024-02-23T01:32:35;1.33;;;0.65;;
79644;SDS011;69117;47.148;18.954;2024-02-23T01:35:39;1.38;;;0.60;;
79644;SDS011;69117;47.148;18.954;2024-02-23T01:38:41;1.10;;;0.10;;
79644;SDS011;69117;47.148;18.954;2024-02-23T01:41:44;0.95;;;0.20;;
79644;SDS011;69117;47.148;18.954;2024-02-23T01:44:45;1.73;;;0.80;;
79644;SDS011;69117;47.148;18.954;2024-02-23T01:47:47;0.30;;;0.10;;
79644;SDS011;69117;47.148;18.954;2024-02-23T01:50:49;1.13;;;0.25;;
79644;SDS011;69117;47.148;18.954;2024-02-23T01:53:51;1.15;;;0.50;;
79644;SDS011;69117;47.148;18.954;2024-02-23T01:56:53;0.63;;;0.32;;
79644;SDS011;69117;47.148;18.954;2024-02-23T01:59:57;1.98;;;0.85;;
79644;SDS011;69117;47.148;18.954;2024-02-23T02:02:58;2.75;;;0.22;;
79644;SDS011;69117;47.148;18.954;2024-02-23T02:06:00;0.68;;;0.57;;
79644;SDS011;69117;47.148;18.954;2024-02-23T02:09:02;0.45;;;0.20;;
79644;SDS011;69117;47.148;18.954;2024-02-23T02:12:03;1.25;;;0.60;;
79644;SDS011;69117;47.148;18.954;2024-02-23T02:15:06;0.65;;;0.30;;
79644;SDS011;69117;47.148;18.954;2024-02-23T02:18:08;0.80;;;0.55;;
79644;SDS011;69117;47.148;18.954;2024-02-23T02:21:09;1.02;;;0.28;;
79644;SDS011;69117;47.148;18.954;2024-02-23T02:24:11;1.08;;;0.60;;
79644;SDS011;69117;47.148;18.954;2024-02-23T02:27:15;0.93;;;0.40;;
79644;SDS011;69117;47.148;18.954;2024-02-23T02:30:17;0.25;;;0.20;;
79644;SDS011;69117;47.148;18.954;2024-02-23T02:33:19;0.75;;;0.40;;
79644;SDS011;69117;47.148;18.954;2024-02-23T02:36:21;0.85;;;0.60;;
79644;SDS011;69117;47.148;18.954;2024-02-23T02:39:23;0.60;;;0.20;;
79644;SDS011;69117;47.148;18.954;2024-02-23T02:42:24;0.75;;;0.45;;
79644;SDS011;69117;47.148;18.954;2024-02-23T02:45:26;1.33;;;0.30;;
79644;SDS011;69117;47.148;18.954;2024-02-23T02:48:28;0.77;;;0.50;;
79644;SDS011;69117;47.148;18.954;2024-02-23T02:51:29;1.45;;;0.63;;
79644;SDS011;69117;47.148;18.954;2024-02-23T02:54:31;0.73;;;0.50;;
79644;SDS011;69117;47.148;18.954;2024-02-23T02:57:33;0.68;;;0.35;;
79644;SDS011;69117;47.148;18.954;2024-02-23T03:00:35;0.40;;;0.10;;
79644;SDS011;69117;47.148;18.954;2024-02-23T03:03:36;2.05;;;0.63;;
79644;SDS011;69117;47.148;18.954;2024-02-23T03:06:38;0.65;;;0.38;;
79644;SDS011;69117;47.148;18.954;2024-02-23T03:09:40;1.08;;;0.65;;
79644;SDS011;69117;47.148;18.954;2024-02-23T03:12:42;0.98;;;0.28;;
79644;SDS011;69117;47.148;18.954;2024-02-23T03:15:44;0.77;;;0.40;;
79644;SDS011;69117;47.148;18.954;2024-02-23T03:18:46;0.13;;;0.13;;
79644;SDS011;69117;47.148;18.954;2024-02-23T03:21:48;1.38;;;0.75;;
79644;SDS011;69117;47.148;18.954;2024-02-23T03:24:49;1.25;;;0.22;;
79644;SDS011;69117;47.148;18.954;2024-02-23T03:27:51;1.27;;;0.60;;
79644;SDS011;69117;47.148;18.954;2024-02-23T03:30:53;1.92;;;0.45;;
79644;SDS011;69117;47.148;18.954;2024-02-23T03:33:54;1.40;;;0.77;;
79644;SDS011;69117;47.148;18.954;2024-02-23T03:36:56;0.35;;;0.32;;
79644;SDS011;69117;47.148;18.954;2024-02-23T03:39:59;1.17;;;0.77;;
79644;SDS011;69117;47.148;18.954;2024-02-23T03:43:03;1.23;;;0.57;;
79644;SDS011;69117;47.148;18.954;2024-02-23T03:46:06;0.80;;;0.40;;
79644;SDS011;69117;47.148;18.954;2024-02-23T03:49:07;1.50;;;0.52;;
79644;SDS011;69117;47.148;18.954;2024-02-23T03:52:09;3.60;;;0.82;;
79644;SDS011;69117;47.148;18.954;2024-02-23T03:55:11;2.65;;;0.63;;
79644;SDS011;69117;47.148;18.954;2024-02-23T03:58:13;1.38;;;0.63;;
79644;SDS011;69117;47.148;18.954;2024-02-23T04:01:14;6.45;;;1.05;;
79644;SDS011;69117;47.148;18.954;2024-02-23T04:04:17;0.60;;;0.38;;
79644;SDS011;69117;47.148;18.954;2024-02-23T04:07:19;1.95;;;0.32;;
79644;SDS011;69117;47.148;18.954;2024-02-23T04:10:21;0.85;;;0.40;;
79644;SDS011;69117;47.148;18.954;2024-02-23T04:13:22;0.30;;;0.15;;
79644;SDS011;69117;47.148;18.954;2024-02-23T04:16:24;1.02;;;0.55;;
79644;SDS011;69117;47.148;18.954;2024-02-23T04:19:26;2.88;;;0.47;;
79644;SDS011;69117;47.148;18.954;2024-02-23T04:22:28;0.68;;;0.50;;
79644;SDS011;69117;47.148;18.954;2024-02-23T04:25:29;3.42;;;0.73;;
79644;SDS011;69117;47.148;18.954;2024-02-23T04:28:31;1.17;;;0.43;;
79644;SDS011;69117;47.148;18.954;2024-02-23T04:31:36;1.02;;;0.17;;
79644;SDS011;69117;47.148;18.954;2024-02-23T04:34:39;1.08;;;0.52;;
79644;SDS011;69117;47.148;18.954;2024-02-23T04:37:44;0.55;;;0.32;;
79644;SDS011;69117;47.148;18.954;2024-02-23T04:40:46;1.00;;;0.70;;
79644;SDS011;69117;47.148;18.954;2024-02-23T04:43:48;1.42;;;0.65;;
79644;SDS011;69117;47.148;18.954;2024-02-23T04:46:50;1.63;;;0.68;;
79644;SDS011;69117;47.148;18.954;2024-02-23T04:49:52;1.85;;;0.52;;
79644;SDS011;69117;47.148;18.954;2024-02-23T04:52:54;1.23;;;0.43;;
79644;SDS011;69117;47.148;18.954;2024-02-23T04:55:55;0.93;;;0.40;;
79644;SDS011;69117;47.148;18.954;2024-02-23T04:58:57;1.02;;;0.68;;
79644;SDS011;69117;47.148;18.954;2024-02-23T05:01:59;1.50;;;0.70;;
79644;SDS011;69117;47.148;18.954;2024-02-23T05:05:02;1.10;;;0.32;;
79644;SDS011;69117;47.148;18.954;2024-02-23T05:08:05;1.23;;;0.43;;
79644;SDS011;69117;47.148;18.954;2024-02-23T05:11:07;0.45;;;0.25;;
79644;SDS011;69117;47.148;18.954;2024-02-23T05:14:09;0.77;;;0.22;;
79644;SDS011;69117;47.148;18.954;2024-02-23T05:17:11;0.55;;;0.30;;
79644;SDS011;69117;47.148;18.954;2024-02-23T05:20:13;0.65;;;0.40;;
79644;SDS011;69117;47.148;18.954;2024-02-23T05:23:15;1.20;;;0.35;;
79644;SDS011;69117;47.148;18.954;2024-02-23T05:26:17;1.08;;;0.55;;
79644;SDS011;69117;47.148;18.954;2024-02-23T05:29:19;0.88;;;0.47;;
79644;SDS011;69117;47.148;18.954;2024-02-23T05:32:23;1.17;;;0.63;;
79644;SDS011;69117;47.148;18.954;2024-02-23T05:35:25;0.85;;;0.63;;
79644;SDS011;69117;47.148;18.954;2024-02-23T05:38:28;1.48;;;0.32;;
79644;SDS011;69117;47.148;18.954;2024-02-23T05:41:32;3.08;;;0.35;;
79644;SDS011;69117;47.148;18.954;2024-02-23T05:44:35;1.73;;;0.38;;
79644;SDS011;69117;47.148;18.954;2024-02-23T05:47:36;1.17;;;0.63;;
79644;SDS011;69117;47.148;18.954;2024-02-23T05:50:47;1.10;;;0.40;;
79644;SDS011;69117;47.148;18.954;2024-02-23T05:53:48;2.90;;;0.88;;
79644;SDS011;69117;47.148;18.954;2024-02-23T05:56:51;1.40;;;0.52;;
79644;SDS011;69117;47.148;18.954;2024-02-23T05:59:53;1.08;;;0.40;;
79644;SDS011;69117;47.148;18.954;2024-02-23T06:02:55;1.58;;;0.77;;
79644;SDS011;69117;47.148;18.954;2024-02-23T06:05:56;4.07;;;0.90;;
79644;SDS011;69117;47.148;18.954;2024-02-23T06:08:58;0.77;;;0.43;;
79644;SDS011;69117;47.148;18.954;2024-02-23T06:12:01;1.48;;;0.73;;
79644;SDS011;69117;47.148;18.954;2024-02-23T06:15:03;0.93;;;0.30;;
79644;SDS011;69117;47.148;18.954;2024-02-23T06:18:05;0.55;;;0.32;;
79644;SDS011;69117;47.148;18.954;2024-02-23T06:21:13;2.15;;;0.98;;
79644;SDS011;69117;47.148;18.954;2024-02-23T06:24:16;0.32;;;0.25;;
79644;SDS011;69117;47.148;18.954;2024-02-23T06:27:18;0.45;;;0.22;;
79644;SDS011;69117;47.148;18.954;2024-02-23T06:30:19;2.95;;;0.65;;
79644;SDS011;69117;47.148;18.954;2024-02-23T06:33:22;1.20;;;0.73;;
79644;SDS011;69117;47.148;18.954;2024-02-23T06:36:23;1.27;;;0.60;;
79644;SDS011;69117;47.148;18.954;2024-02-23T06:39:25;3.03;;;1.00;;
79644;SDS011;69117;47.148;18.954;2024-02-23T06:42:27;1.40;;;0.63;;
79644;SDS011;69117;47.148;18.954;2024-02-23T06:45:29;1.20;;;0.70;;
79644;SDS011;69117;47.148;18.954;2024-02-23T06:48:30;1.35;;;0.90;;
79644;SDS011;69117;47.148;18.954;2024-02-23T06:51:33;1.35;;;0.47;;
79644;SDS011;69117;47.148;18.954;2024-02-23T06:54:35;1.42;;;0.82;;
79644;SDS011;69117;47.148;18.954;2024-02-23T06:57:37;1.70;;;1.30;;
79644;SDS011;69117;47.148;18.954;2024-02-23T07:00:39;2.65;;;0.82;;
79644;SDS011;69117;47.148;18.954;2024-02-23T07:03:41;2.33;;;1.08;;
79644;SDS011;69117;47.148;18.954;2024-02-23T07:06:44;1.10;;;0.82;;
79644;SDS011;69117;47.148;18.954;2024-02-23T07:09:46;2.67;;;0.98;;
79644;SDS011;69117;47.148;18.954;2024-02-23T07:12:48;2.97;;;1.65;;
79644;SDS011;69117;47.148;18.954;2024-02-23T07:15:50;1.27;;;0.85;;
79644;SDS011;69117;47.148;18.954;2024-02-23T07:18:51;2.92;;;1.55;;
79644;SDS011;69117;47.148;18.954;2024-02-23T07:21:53;1.15;;;0.80;;
79644;SDS011;69117;47.148;18.954;2024-02-23T07:24:54;1.40;;;0.82;;
79644;SDS011;69117;47.148;18.954;2024-02-23T07:27:56;1.67;;;0.95;;
79644;SDS011;69117;47.148;18.954;2024-02-23T07:30:58;2.08;;;1.23;;
79644;SDS011;69117;47.148;18.954;2024-02-23T07:33:59;3.45;;;1.27;;
79644;SDS011;69117;47.148;18.954;2024-02-23T07:37:01;1.17;;;0.77;;
79644;SDS011;69117;47.148;18.954;2024-02-23T07:40:04;2.15;;;1.48;;
79644;SDS011;69117;47.148;18.954;2024-02-23T07:43:06;1.73;;;0.50;;
79644;SDS011;69117;47.148;18.954;2024-02-23T07:46:07;1.50;;;0.63;;
79644;SDS011;69117;47.148;18.954;2024-02-23T07:49:10;1.42;;;0.80;;
79644;SDS011;69117;47.148;18.954;2024-02-23T07:52:12;2.25;;;1.20;;
79644;SDS011;69117;47.148;18.954;2024-02-23T07:55:13;1.83;;;1.63;;
79644;SDS011;69117;47.148;18.954;2024-02-23T07:58:17;5.20;;;1.55;;
79644;SDS011;69117;47.148;18.954;2024-02-23T08:01:20;1.70;;;0.90;;
79644;SDS011;69117;47.148;18.954;2024-02-23T08:04:22;0.68;;;0.30;;
79644;SDS011;69117;47.148;18.954;2024-02-23T08:07:23;1.50;;;1.00;;
79644;SDS011;69117;47.148;18.954;2024-02-23T08:10:27;2.80;;;1.25;;
79644;SDS011;69117;47.148;18.954;2024-02-23T08:13:28;2.95;;;1.17;;
79644;SDS011;69117;47.148;18.954;2024-02-23T08:16:30;2.53;;;1.10;;
79644;SDS011;69117;47.148;18.954;2024-02-23T08:19:31;6.75;;;1.20;;
79644;SDS011;69117;47.148;18.954;2024-02-23T08:22:33;0.98;;;0.65;;
79644;SDS011;69117;47.148;18.954;2024-02-23T08:25:35;1.77;;;0.80;;
79644;SDS011;69117;47.148;18.954;2024-02-23T08:28:37;1.40;;;0.55;;
79644;SDS011;69117;47.148;18.954;2024-02-23T08:31:39;0.20;;;0.10;;
79644;SDS011;69117;47.148;18.954;2024-02-23T08:34:43;1.83;;;1.33;;
79644;SDS011;69117;47.148;18.954;2024-02-23T08:37:44;0.80;;;0.38;;
79644;SDS011;69117;47.148;18.954;2024-02-23T08:40:46;1.48;;;0.82;;
79644;SDS011;69117;47.148;18.954;2024-02-23T08:43:48;1.33;;;0.63;;
79644;SDS011;69117;47.148;18.954;2024-02-23T08:46:51;1.40;;;0.73;;
79644;SDS011;69117;47.148;18.954;2024-02-23T08:49:52;1.17;;;0.47;;
79644;SDS011;69117;47.148;18.954;2024-02-23T08:52:54;0.80;;;0.32;;
79644;SDS011;69117;47.148;18.954;2024-02-23T08:55:56;1.80;;;0.40;;
79644;SDS011;69117;47.148;18.954;2024-02-23T08:58:59;0.30;;;0.22;;
79644;SDS011;69117;47.148;18.954;2024-02-23T09:02:00;1.13;;;0.35;;
79644;SDS011;69117;47.148;18.954;2024-02-23T09:05:02;1.13;;;0.70;;
79644;SDS011;69117;47.148;18.954;2024-02-23T09:08:05;0.45;;;0.22;;
79644;SDS011;69117;47.148;18.954;2024-02-23T09:11:07;1.70;;;0.65;;
79644;SDS011;69117;47.148;18.954;2024-02-23T09:14:08;1.08;;;0.77;;
79644;SDS011;69117;47.148;18.954;2024-02-23T09:17:10;3.47;;;1.08;;
79644;SDS011;69117;47.148;18.954;2024-02-23T09:20:12;1.88;;;1.23;;
79644;SDS011;69117;47.148;18.954;2024-02-23T09:23:14;1.98;;;0.80;;
79644;SDS011;69117;47.148;18.954;2024-02-23T09:26:16;0.95;;;0.50;;
79644;SDS011;69117;47.148;18.954;2024-02-23T09:29:19;0.90;;;0.47;;
79644;SDS011;69117;47.148;18.954;2024-02-23T09:32:21;1.58;;;0.52;;
79644;SDS011;69117;47.148;18.954;2024-02-23T09:35:22;0.63;;;0.43;;
79644;SDS011;69117;47.148;18.954;2024-02-23T09:38:24;1.00;;;0.60;;
79644;SDS011;69117;47.148;18.954;2024-02-23T09:41:26;0.38;;;0.13;;
79644;SDS011;69117;47.148;18.954;2024-02-23T09:44:33;0.82;;;0.22;;
79644;SDS011;69117;47.148;18.954;2024-02-23T09:50:37;4.10;;;1.02;;
79644;SDS011;69117;47.148;18.954;2024-02-23T09:53:42;6.65;;;1.33;;
79644;SDS011;69117;47.148;18.954;2024-02-23T09:56:43;1.23;;;0.85;;
79644;SDS011;69117;47.148;18.954;2024-02-23T09:59:46;1.02;;;0.50;;
79644;SDS011;69117;47.148;18.954;2024-02-23T10:02:50;2.08;;;0.90;;
79644;SDS011;69117;47.148;18.954;2024-02-23T10:05:53;1.40;;;0.60;;
79644;SDS011;69117;47.148;18.954;2024-02-23T10:08:55;3.50;;;1.83;;
79644;SDS011;69117;47.148;18.954;2024-02-23T10:11:57;1.00;;;0.60;;
79644;SDS011;69117;47.148;18.954;2024-02-23T10:14:59;1.55;;;0.63;;
79644;SDS011;69117;47.148;18.954;2024-02-23T10:18:00;1.83;;;0.98;;
79644;SDS011;69117;47.148;18.954;2024-02-23T10:21:02;3.35;;;1.00;;
79644;SDS011;69117;47.148;18.954;2024-02-23T10:24:07;3.30;;;1.33;;
79644;SDS011;69117;47.148;18.954;2024-02-23T10:27:09;8.23;;;2.92;;
79644;SDS011;69117;47.148;18.954;2024-02-23T10:30:12;5.40;;;2.72;;
79644;SDS011;69117;47.148;18.954;2024-02-23T10:33:17;2.88;;;1.70;;
79644;SDS011;69117;47.148;18.954;2024-02-23T10:36:22;1.33;;;0.88;;
79644;SDS011;69117;47.148;18.954;2024-02-23T10:39:30;4.68;;;1.60;;
79644;SDS011;69117;47.148;18.954;2024-02-23T10:42:33;6.45;;;2.33;;
79644;SDS011;69117;47.148;18.954;2024-02-23T10:45:36;2.30;;;1.27;;
79644;SDS011;69117;47.148;18.954;2024-02-23T10:48:43;2.53;;;0.95;;
79644;SDS011;69117;47.148;18.954;2024-02-23T10:51:46;2.28;;;1.17;;
79644;SDS011;69117;47.148;18.954;2024-02-23T10:54:49;3.53;;;1.88;;
79644;SDS011;69117;47.148;18.954;2024-02-23T10:57:53;7.53;;;2.63;;
79644;SDS011;69117;47.148;18.954;2024-02-23T11:01:00;5.07;;;3.72;;
79644;SDS011;69117;47.148;18.954;2024-02-23T11:04:06;5.63;;;2.75;;
79644;SDS011;69117;47.148;18.954;2024-02-23T11:07:13;13.98;;;6.38;;
79644;SDS011;69117;47.148;18.954;2024-02-23T11:10:15;25.67;;;10.70;;
79644;SDS011;69117;47.148;18.954;2024-02-23T11:13:17;4.25;;;2.13;;
79644;SDS011;69117;47.148;18.954;2024-02-23T11:16:22;11.48;;;6.65;;
79644;SDS011;69117;47.148;18.954;2024-02-23T11:19:34;5.93;;;2.85;;
79644;SDS011;69117;47.148;18.954;2024-02-23T11:22:38;3.10;;;1.60;;
79644;SDS011;69117;47.148;18.954;2024-02-23T11:25:40;4.10;;;2.17;;
79644;SDS011;69117;47.148;18.954;2024-02-23T11:28:51;1.58;;;1.27;;
79644;SDS011;69117;47.148;18.954;2024-02-23T11:31:57;4.78;;;2.00;;
79644;SDS011;69117;47.148;18.954;2024-02-23T11:35:03;4.82;;;2.22;;
79644;SDS011;69117;47.148;18.954;2024-02-23T11:38:05;15.27;;;5.85;;
79644;SDS011;69117;47.148;18.954;2024-02-23T11:41:08;7.38;;;3.20;;
79644;SDS011;69117;47.148;18.954;2024-02-23T11:44:10;2.85;;;1.65;;
79644;SDS011;69117;47.148;18.954;2024-02-23T11:47:14;8.15;;;4.13;;
79644;SDS011;69117;47.148;18.954;2024-02-23T11:50:18;9.63;;;4.30;;
79644;SDS011;69117;47.148;18.954;2024-02-23T11:53:22;15.93;;;7.47;;
79644;SDS011;69117;47.148;18.954;2024-02-23T11:56:26;35.65;;;12.15;;
79644;SDS011;69117;47.148;18.954;2024-02-23T11:59:28;34.92;;;14.48;;
79644;SDS011;69117;47.148;18.954;2024-02-23T12:02:29;18.55;;;7.85;;
79644;SDS011;69117;47.148;18.954;2024-02-23T12:05:31;9.60;;;3.70;;
79644;SDS011;69117;47.148;18.954;2024-02-23T12:08:33;11.13;;;3.75;;
79644;SDS011;69117;47.148;18.954;2024-02-23T12:11:40;7.30;;;3.30;;
79644;SDS011;69117;47.148;18.954;2024-02-23T12:14:43;5.32;;;2.75;;
79644;SDS011;69117;47.148;18.954;2024-02-23T12:17:49;4.75;;;2.95;;
79644;SDS011;69117;47.148;18.954;2024-02-23T12:20:52;8.98;;;4.53;;
79644;SDS011;69117;47.148;18.954;2024-02-23T12:23:54;11.55;;;5.90;;
79644;SDS011;69117;47.148;18.954;2024-02-23T12:26:56;13.07;;;6.32;;
79644;SDS011;69117;47.148;18.954;2024-02-23T12:29:57;16.02;;;5.82;;
79644;SDS011;69117;47.148;18.954;2024-02-23T12:33:06;7.95;;;3.13;;
79644;SDS011;69117;47.148;18.954;2024-02-23T12:36:12;7.22;;;2.80;;
79644;SDS011;69117;47.148;18.954;2024-02-23T12:39:14;2.33;;;1.90;;
79644;SDS011;69117;47.148;18.954;2024-02-23T12:42:16;3.80;;;1.85;;
79644;SDS011;69117;47.148;18.954;2024-02-23T12:45:19;4.07;;;2.60;;
79644;SDS011;69117;47.148;18.954;2024-02-23T12:48:21;2.85;;;1.65;;
79644;SDS011;69117;47.148;18.954;2024-02-23T12:51:24;3.30;;;1.52;;
79644;SDS011;69117;47.148;18.954;2024-02-23T12:54:27;3.17;;;1.83;;
79644;SDS011;69117;47.148;18.954;2024-02-23T12:57:29;3.45;;;2.13;;
79644;SDS011;69117;47.148;18.954;2024-02-23T13:00:31;4.53;;;2.78;;
79644;SDS011;69117;47.148;18.954;2024-02-23T13:03:33;4.35;;;2.47;;
79644;SDS011;69117;47.148;18.954;2024-02-23T13:06:39;3.85;;;2.30;;
79644;SDS011;69117;47.148;18.954;2024-02-23T13:09:41;5.47;;;3.38;;
79644;SDS011;69117;47.148;18.954;2024-02-23T13:12:43;4.47;;;2.60;;
79644;SDS011;69117;47.148;18.954;2024-02-23T13:15:45;5.45;;;2.25;;
79644;SDS011;69117;47.148;18.954;2024-02-23T13:18:48;5.97;;;1.95;;
79644;SDS011;69117;47.148;18.954;2024-02-23T13:21:49;4.88;;;2.90;;
79644;SDS011;69117;47.148;18.954;2024-02-23T13:24:51;4.13;;;1.95;;
79644;SDS011;69117;47.148;18.954;2024-02-23T13:27:53;4.68;;;2.17;;
79644;SDS011;69117;47.148;18.954;2024-02-23T13:30:54;4.13;;;2.00;;
79644;SDS011;69117;47.148;18.954;2024-02-23T13:33:56;7.75;;;2.80;;
79644;SDS011;69117;47.148;18.954;2024-02-23T13:37:00;3.83;;;2.35;;
79644;SDS011;69117;47.148;18.954;2024-02-23T13:40:01;3.63;;;2.22;;
79644;SDS011;69117;47.148;18.954;2024-02-23T13:43:04;3.95;;;2.10;;
79644;SDS011;69117;47.148;18.954;2024-02-23T13:46:06;4.13;;;2.08;;
79644;SDS011;69117;47.148;18.954;2024-02-23T13:49:08;5.35;;;2.47;;
79644;SDS011;69117;47.148;18.954;2024-02-23T13:52:11;5.07;;;2.47;;
79644;SDS011;69117;47.148;18.954;2024-02-23T13:55:13;5.40;;;3.10;;
79644;SDS011;69117;47.148;18.954;2024-02-23T13:58:15;3.97;;;2.80;;
79644;SDS011;69117;47.148;18.954;2024-02-23T14:01:18;5.80;;;3.67;;
79644;SDS011;69117;47.148;18.954;2024-02-23T14:04:20;5.68;;;2.75;;
79644;SDS011;69117;47.148;18.954;2024-02-23T14:07:22;6.50;;;3.75;;
79644;SDS011;69117;47.148;18.954;2024-02-23T14:10:24;5.47;;;3.38;;
79644;SDS011;69117;47.148;18.954;2024-02-23T14:13:26;8.88;;;3.85;;
79644;SDS011;69117;47.148;18.954;2024-02-23T14:16:28;4.90;;;2.97;;
79644;SDS011;69117;47.148;18.954;2024-02-23T14:19:30;6.63;;;3.60;;
79644;SDS011;69117;47.148;18.954;2024-02-23T14:22:31;7.13;;;4.18;;
79644;SDS011;69117;47.148;18.954;2024-02-23T14:25:33;4.85;;;3.00;;
79644;SDS011;69117;47.148;18.954;2024-02-23T14:28:35;5.97;;;3.10;;
79644;SDS011;69117;47.148;18.954;2024-02-23T14:31:36;6.95;;;2.85;;
79644;SDS011;69117;47.148;18.954;2024-02-23T14:34:38;5.47;;;2.33;;
79644;SDS011;69117;47.148;18.954;2024-02-23T14:37:40;8.02;;;3.05;;
79644;SDS011;69117;47.148;18.954;2024-02-23T14:40:41;5.35;;;2.25;;
79644;SDS011;69117;47.148;18.954;2024-02-23T14:43:44;4.15;;;2.10;;
79644;SDS011;69117;47.148;18.954;2024-02-23T14:46:45;5.85;;;2.65;;
79644;SDS011;69117;47.148;18.954;2024-02-23T14:49:47;7.30;;;3.25;;
79644;SDS011;69117;47.148;18.954;2024-02-23T14:52:49;9.38;;;3.95;;
79644;SDS011;69117;47.148;18.954;2024-02-23T14:55:50;6.75;;;3.45;;
79644;SDS011;69117;47.148;18.954;2024-02-23T14:58:53;7.30;;;4.43;;
79644;SDS011;69117;47.148;18.954;2024-02-23T15:01:55;11.43;;;4.60;;
79644;SDS011;69117;47.148;18.954;2024-02-23T15:04:57;14.82;;;5.40;;
79644;SDS011;69117;47.148;18.954;2024-02-23T15:07:59;13.80;;;5.93;;
79644;SDS011;69117;47.148;18.954;2024-02-23T15:11:00;14.73;;;5.45;;
79644;SDS011;69117;47.148;18.954;2024-02-23T15:14:02;16.05;;;6.32;;
79644;SDS011;69117;47.148;18.954;2024-02-23T15:17:04;15.00;;;4.35;;
79644;SDS011;69117;47.148;18.954;2024-02-23T15:20:06;10.95;;;4.80;;
79644;SDS011;69117;47.148;18.954;2024-02-23T15:23:10;7.25;;;3.25;;
79644;SDS011;69117;47.148;18.954;2024-02-23T15:26:11;3.33;;;2.45;;
79644;SDS011;69117;47.148;18.954;2024-02-23T15:29:13;7.93;;;3.75;;
79644;SDS011;69117;47.148;18.954;2024-02-23T15:32:16;5.90;;;2.70;;
79644;SDS011;69117;47.148;18.954;2024-02-23T15:35:18;7.68;;;4.20;;
79644;SDS011;69117;47.148;18.954;2024-02-23T15:38:20;14.38;;;4.38;;
79644;SDS011;69117;47.148;18.954;2024-02-23T15:41:22;9.35;;;4.75;;
79644;SDS011;69117;47.148;18.954;2024-02-23T15:44:23;6.72;;;3.00;;
79644;SDS011;69117;47.148;18.954;2024-02-23T15:47:25;10.30;;;3.78;;
79644;SDS011;69117;47.148;18.954;2024-02-23T15:50:27;8.63;;;3.75;;
79644;SDS011;69117;47.148;18.954;2024-02-23T15:53:49;7.45;;;4.32;;
79644;SDS011;69117;47.148;18.954;2024-02-23T15:56:51;6.20;;;3.35;;
79644;SDS011;69117;47.148;18.954;2024-02-23T15:59:53;6.93;;;4.05;;
79644;SDS011;69117;47.148;18.954;2024-02-23T16:03:04;5.03;;;2.80;;
79644;SDS011;69117;47.148;18.954;2024-02-23T16:06:06;6.68;;;3.28;;
79644;SDS011;69117;47.148;18.954;2024-02-23T16:09:08;2.50;;;1.77;;
79644;SDS011;69117;47.148;18.954;2024-02-23T16:12:10;4.88;;;3.28;;
79644;SDS011;69117;47.148;18.954;2024-02-23T16:15:12;5.30;;;2.88;;
79644;SDS011;69117;47.148;18.954;2024-02-23T16:18:14;3.88;;;2.63;;
79644;SDS011;69117;47.148;18.954;2024-02-23T16:21:15;5.25;;;3.05;;
79644;SDS011;69117;47.148;18.954;2024-02-23T16:24:17;3.95;;;2.20;;
79644;SDS011;69117;47.148;18.954;2024-02-23T16:27:19;4.85;;;2.60;;
79644;SDS011;69117;47.148;18.954;2024-02-23T16:30:21;3.55;;;2.47;;
79644;SDS011;69117;47.148;18.954;2024-02-23T16:33:22;4.03;;;2.75;;
79644;SDS011;69117;47.148;18.954;2024-02-23T16:36:24;4.43;;;2.83;;
79644;SDS011;69117;47.148;18.954;2024-02-23T16:39:25;7.60;;;3.75;;
79644;SDS011;69117;47.148;18.954;2024-02-23T16:42:27;4.90;;;2.65;;
79644;SDS011;69117;47.148;18.954;2024-02-23T16:45:29;6.32;;;2.10;;
79644;SDS011;69117;47.148;18.954;2024-02-23T16:48:31;9.98;;;3.45;;
79644;SDS011;69117;47.148;18.954;2024-02-23T16:51:32;7.25;;;2.92;;
79644;SDS011;69117;47.148;18.954;2024-02-23T16:54:34;7.15;;;3.17;;
79644;SDS011;69117;47.148;18.954;2024-02-23T16:57:36;6.60;;;3.10;;
79644;SDS011;69117;47.148;18.954;2024-02-23T17:00:38;5.38;;;2.88;;
79644;SDS011;69117;47.148;18.954;2024-02-23T17:03:39;3.90;;;2.35;;
79644;SDS011;69117;47.148;18.954;2024-02-23T17:06:41;4.72;;;2.63;;
79644;SDS011;69117;47.148;18.954;2024-02-23T17:09:43;5.28;;;2.67;;
79644;SDS011;69117;47.148;18.954;2024-02-23T17:12:47;6.18;;;3.05;;
79644;SDS011;69117;47.148;18.954;2024-02-23T17:15:50;4.80;;;2.25;;
79644;SDS011;69117;47.148;18.954;2024-02-23T17:18:51;5.55;;;2.83;;
79644;SDS011;69117;47.148;18.954;2024-02-23T17:21:53;5.60;;;2.80;;
79644;SDS011;69117;47.148;18.954;2024-02-23T17:24:55;2.97;;;2.40;;
79644;SDS011;69117;47.148;18.954;2024-02-23T17:27:57;7.10;;;3.38;;
79644;SDS011;69117;47.148;18.954;2024-02-23T17:30:58;7.00;;;4.00;;
79644;SDS011;69117;47.148;18.954;2024-02-23T17:34:00;9.20;;;3.97;;
79644;SDS011;69117;47.148;18.954;2024-02-23T17:37:02;6.15;;;3.40;;
79644;SDS011;69117;47.148;18.954;2024-02-23T17:40:04;4.97;;;2.78;;
79644;SDS011;69117;47.148;18.954;2024-02-23T17:43:05;6.25;;;3.42;;
79644;SDS011;69117;47.148;18.954;2024-02-23T17:46:07;7.00;;;3.47;;
79644;SDS011;69117;47.148;18.954;2024-02-23T17:49:09;6.20;;;3.53;;
79644;SDS011;69117;47.148;18.954;2024-02-23T17:52:11;4.78;;;3.35;;
79644;SDS011;69117;47.148;18.954;2024-02-23T17:55:13;6.10;;;3.55;;
79644;SDS011;69117;47.148;18.954;2024-02-23T17:58:14;7.18;;;3.40;;
79644;SDS011;69117;47.148;18.954;2024-02-23T18:01:21;4.38;;;2.90;;
79644;SDS011;69117;47.148;18.954;2024-02-23T18:04:22;5.28;;;2.75;;